createdAt,value
2018-10-03T00:04:16.462Z,36.67
2018-10-03T00:09:20.593Z,39.80
2018-10-03T00:14:24.722Z,38.83
2018-10-03T00:19:28.824Z,40.27
2018-10-03T00:24:32.679Z,38.13
2018-10-03T00:29:36.909Z,38.63
2018-10-03T00:34:41.024Z,35.40
2018-10-03T00:39:45.179Z,38.93
2018-10-03T00:44:49.293Z,37.67
2018-10-03T00:49:53.382Z,36.20
2018-10-03T00:54:57.639Z,38.03
2018-10-03T01:00:01.977Z,37.80
2018-10-03T01:05:06.644Z,34.73
2018-10-03T01:10:10.557Z,32.30
2018-10-03T01:15:14.720Z,29.87
2018-10-03T01:20:18.558Z,29.17
2018-10-03T01:25:23.071Z,27.17
2018-10-03T01:30:27.507Z,27.13
2018-10-03T01:35:31.647Z,25.73
2018-10-03T01:40:36.115Z,24.80
2018-10-03T01:45:39.988Z,25.27
2018-10-03T01:50:44.331Z,25.80
2018-10-03T01:55:48.686Z,24.67
2018-10-03T02:00:52.589Z,26.53
2018-10-03T02:05:56.433Z,26.47
2018-10-03T02:11:00.779Z,25.90
2018-10-03T02:16:04.639Z,26.37
2018-10-03T02:21:08.730Z,27.90
2018-10-03T02:26:12.816Z,28.50
2018-10-03T02:31:16.654Z,30.92
2018-10-03T02:36:20.857Z,30.12
2018-10-03T02:41:24.955Z,29.33
2018-10-03T02:46:29.055Z,28.07
2018-10-03T02:51:33.587Z,27.90
2018-10-03T02:56:37.835Z,27.60
2018-10-03T03:01:41.751Z,24.50
2018-10-03T03:06:45.554Z,21.97
2018-10-03T03:11:49.447Z,20.10
2018-10-03T03:16:53.268Z,20.77
2018-10-03T03:21:57.105Z,20.73
2018-10-03T03:27:01.231Z,19.90
2018-10-03T03:32:05.411Z,19.70
2018-10-03T03:37:09.578Z,18.60
2018-10-03T03:42:13.699Z,18.23
2018-10-03T03:47:18.092Z,19.33
2018-10-03T03:52:22.414Z,19.57
2018-10-03T03:57:26.273Z,18.40
2018-10-03T04:02:30.378Z,19.70
2018-10-03T04:07:34.501Z,19.10
2018-10-03T04:12:38.718Z,19.10
2018-10-03T04:17:42.593Z,19.20
2018-10-03T04:22:46.854Z,20.70
2018-10-03T04:27:50.823Z,19.60
2018-10-03T04:32:54.737Z,20.00
2018-10-03T04:37:58.860Z,20.63
2018-10-03T04:43:02.724Z,20.50
2018-10-03T04:48:06.643Z,21.47
2018-10-03T04:53:10.510Z,19.87
2018-10-03T04:58:14.338Z,19.80
2018-10-03T05:03:18.186Z,19.13
2018-10-03T05:08:22.390Z,17.40
2018-10-03T05:13:26.279Z,15.33
2018-10-03T05:18:30.386Z,14.97
2018-10-03T05:23:34.503Z,13.13
2018-10-03T05:28:38.618Z,12.27
2018-10-03T05:33:42.794Z,11.80
2018-10-03T05:38:46.636Z,10.13
2018-10-03T05:43:50.577Z,9.47
2018-10-03T05:48:54.761Z,8.83
2018-10-03T05:53:58.823Z,9.03
2018-10-03T05:59:02.675Z,8.48
2018-10-03T06:04:06.672Z,7.90
2018-10-03T06:09:11.873Z,6.90
2018-10-03T06:14:16.130Z,6.67
2018-10-03T06:19:20.403Z,8.20
2018-10-03T06:24:24.269Z,8.30
2018-10-03T06:29:28.388Z,6.90
2018-10-03T06:34:32.585Z,5.77
2018-10-03T06:39:36.650Z,6.20
2018-10-03T06:44:40.747Z,6.07
2018-10-03T06:49:44.553Z,5.40
2018-10-03T06:54:48.686Z,7.23
2018-10-03T06:59:52.532Z,8.03
2018-10-03T07:04:56.657Z,5.57
2018-10-03T07:10:00.766Z,5.17
2018-10-03T07:15:04.612Z,5.20
2018-10-03T07:20:08.493Z,12.60
2018-10-03T07:25:12.259Z,4.53
2018-10-03T07:30:16.081Z,4.53
2018-10-03T07:35:19.917Z,5.43
2018-10-03T07:40:23.997Z,4.50
2018-10-03T07:45:28.073Z,4.47
2018-10-03T07:50:32.266Z,4.43
2018-10-03T07:55:36.419Z,5.13
2018-10-03T08:00:40.474Z,5.43
2018-10-03T08:05:44.336Z,5.00
2018-10-03T08:10:48.139Z,8.20
2018-10-03T08:15:52.239Z,6.87
2018-10-03T08:20:56.340Z,5.40
2018-10-03T08:26:00.153Z,5.10
2018-10-03T08:31:04.263Z,17.13
2018-10-03T08:36:08.346Z,6.37
2018-10-03T08:41:12.174Z,9.67
2018-10-03T08:46:16.278Z,6.80
2018-10-03T08:51:20.453Z,4.97
2018-10-03T08:56:24.265Z,4.90
2018-10-03T09:01:28.321Z,4.77
2018-10-03T09:06:32.127Z,4.80
2018-10-03T09:11:36.490Z,4.63
2018-10-03T09:16:40.288Z,5.27
2018-10-03T09:21:44.275Z,4.47
2018-10-03T09:26:48.001Z,4.57
2018-10-03T09:31:52.204Z,4.10
2018-10-03T09:36:56.023Z,4.63
2018-10-03T09:42:00.090Z,4.50
2018-10-03T09:47:04.291Z,4.97
2018-10-03T09:52:08.101Z,4.37
2018-10-03T09:57:12.200Z,4.07
2018-10-03T10:02:16.280Z,4.00
2018-10-03T10:07:20.473Z,4.30
2018-10-03T10:12:24.291Z,4.20
2018-10-03T10:17:28.133Z,4.40
2018-10-03T10:22:32.194Z,4.00
2018-10-03T10:27:36.371Z,4.67
2018-10-03T10:32:40.251Z,4.03
2018-10-03T10:37:44.033Z,4.40
2018-10-03T10:42:47.897Z,3.30
2018-10-03T10:47:51.796Z,4.13
2018-10-03T10:52:55.601Z,3.60
2018-10-03T10:57:59.436Z,3.57
2018-10-03T11:03:03.546Z,3.90
2018-10-03T11:08:07.750Z,3.27
2018-10-03T11:13:11.562Z,4.53
2018-10-03T11:18:16.396Z,3.93
2018-10-03T11:23:20.546Z,3.43
2018-10-03T11:28:24.318Z,3.80
2018-10-03T11:33:28.149Z,3.50
2018-10-03T11:38:32.198Z,4.10
2018-10-03T11:43:36.008Z,4.20
2018-10-03T11:48:39.836Z,3.40
2018-10-03T11:53:43.910Z,3.30
2018-10-03T11:58:47.709Z,4.43
2018-10-03T12:03:51.907Z,3.27
2018-10-03T12:08:56.061Z,3.50
2018-10-03T12:14:00.159Z,4.00
2018-10-03T12:19:03.985Z,4.03
2018-10-03T12:24:08.138Z,3.70
2018-10-03T12:29:12.227Z,4.27
2018-10-03T12:34:16.311Z,4.05
2018-10-03T12:39:20.223Z,3.57
2018-10-03T12:44:24.056Z,3.53
2018-10-03T12:49:30.846Z,4.30
2018-10-03T12:54:34.972Z,3.70
2018-10-03T12:59:38.796Z,4.20
2018-10-03T13:04:42.635Z,3.90
2018-10-03T13:09:46.695Z,3.63
2018-10-03T13:14:50.806Z,4.30
2018-10-03T13:19:54.918Z,4.00
2018-10-03T13:24:58.720Z,3.67
2018-10-03T13:30:02.783Z,4.23
2018-10-03T13:35:06.605Z,3.80
2018-10-03T13:40:10.659Z,3.90
2018-10-03T13:45:14.696Z,3.33
2018-10-03T13:50:18.483Z,3.63
2018-10-03T13:55:22.724Z,3.53
2018-10-03T14:00:26.784Z,3.97
2018-10-03T14:05:30.873Z,3.57
2018-10-03T14:10:34.953Z,3.60
2018-10-03T14:15:38.796Z,3.73
2018-10-03T14:20:42.883Z,3.50
2018-10-03T14:25:46.845Z,3.47
2018-10-03T14:30:50.941Z,3.53
2018-10-03T14:35:55.005Z,3.57
2018-10-03T14:40:58.841Z,3.80
2018-10-03T14:46:02.905Z,4.00
2018-10-03T14:51:06.894Z,3.20
2018-10-03T14:56:10.701Z,3.60
2018-10-03T15:01:14.794Z,3.77
2018-10-03T15:06:18.604Z,4.07
2018-10-03T15:11:22.440Z,4.47
2018-10-03T15:16:26.502Z,3.50
2018-10-03T15:21:30.536Z,3.80
2018-10-03T15:26:34.586Z,3.63
2018-10-03T15:31:38.700Z,4.00
2018-10-03T15:36:42.758Z,4.00
2018-10-03T15:41:53.196Z,4.17
2018-10-03T15:46:57.246Z,4.43
2018-10-03T15:52:01.042Z,3.65
2018-10-03T15:57:05.073Z,4.12
2018-10-03T16:02:09.149Z,3.92
2018-10-03T16:07:13.197Z,4.35
2018-10-03T16:12:16.998Z,3.27
2018-10-03T16:17:21.433Z,3.70
2018-10-03T16:22:25.249Z,4.10
2018-10-03T16:27:29.545Z,3.83
2018-10-03T16:32:33.629Z,6.33
2018-10-03T16:37:37.692Z,5.60
2018-10-03T16:42:41.870Z,5.03
2018-10-03T16:47:45.948Z,4.47
2018-10-03T16:52:50.116Z,4.50
2018-10-03T16:57:54.181Z,4.00
2018-10-03T17:02:59.050Z,4.43
2018-10-03T17:08:03.119Z,4.73
2018-10-03T17:13:07.252Z,4.63
2018-10-03T17:18:11.336Z,4.40
2018-10-03T17:23:15.161Z,4.03
2018-10-03T17:28:18.977Z,4.33
2018-10-03T17:33:22.796Z,4.60
2018-10-03T17:38:26.910Z,5.17
2018-10-03T17:43:30.990Z,5.07
2018-10-03T17:48:34.834Z,5.53
2018-10-03T17:53:38.671Z,5.57
2018-10-03T17:58:42.534Z,5.23
2018-10-03T18:03:46.605Z,5.70
2018-10-03T18:08:50.557Z,6.00
2018-10-03T18:13:54.403Z,6.27
2018-10-03T18:18:58.318Z,6.07
2018-10-03T18:24:02.126Z,6.25
2018-10-03T18:29:06.417Z,6.17
2018-10-03T18:34:10.494Z,6.12
2018-10-03T18:39:14.657Z,4.80
2018-10-03T18:44:18.449Z,5.77
2018-10-03T18:49:22.586Z,5.83
2018-10-03T18:54:26.652Z,5.27
2018-10-03T18:59:31.292Z,5.23
2018-10-03T19:04:36.806Z,6.33
2018-10-03T19:09:40.634Z,6.40
2018-10-03T19:14:44.697Z,6.20
2018-10-03T19:19:48.506Z,5.83
2018-10-03T19:24:52.345Z,5.83
2018-10-03T19:29:56.388Z,6.12
2018-10-03T19:35:00.436Z,5.57
2018-10-03T19:40:04.250Z,6.47
2018-10-03T19:45:08.069Z,6.40
2018-10-03T19:50:11.867Z,5.90
2018-10-03T19:55:15.938Z,6.53
2018-10-03T20:00:19.790Z,6.10
2018-10-03T20:05:23.569Z,6.60
2018-10-03T20:10:27.624Z,6.10
2018-10-03T20:15:31.711Z,6.50
2018-10-03T20:20:36.540Z,5.37
2018-10-03T20:25:40.369Z,5.90
2018-10-03T20:30:44.173Z,6.60
2018-10-03T20:35:47.983Z,5.60
2018-10-03T20:40:52.125Z,6.87
2018-10-03T20:45:55.932Z,6.37
2018-10-03T20:50:59.959Z,5.87
2018-10-03T20:56:03.757Z,6.73
2018-10-03T21:01:07.638Z,6.40
2018-10-03T21:06:11.453Z,7.10
2018-10-03T21:11:15.752Z,6.83
2018-10-03T21:16:19.933Z,6.77
2018-10-03T21:21:24.020Z,6.37
2018-10-03T21:26:28.107Z,6.30
2018-10-03T21:31:31.952Z,5.97
2018-10-03T21:36:36.086Z,6.37
2018-10-03T21:41:39.909Z,6.23
2018-10-03T21:46:43.732Z,7.10
2018-10-03T21:51:47.801Z,7.33
2018-10-03T21:56:51.966Z,7.72
2018-10-03T22:01:56.661Z,7.20
2018-10-03T22:07:00.727Z,6.63
2018-10-03T22:12:04.816Z,7.50
2018-10-03T22:17:13.878Z,7.27
2018-10-03T22:22:17.697Z,6.90
2018-10-03T22:27:21.572Z,8.03
2018-10-03T22:32:25.630Z,7.50
2018-10-03T22:37:29.419Z,8.00
2018-10-03T22:42:33.479Z,8.00
2018-10-03T22:47:37.561Z,8.00
2018-10-03T22:52:41.356Z,7.97
2018-10-03T22:57:45.265Z,8.60
2018-10-03T23:02:49.322Z,8.20
2018-10-03T23:07:53.117Z,8.27
2018-10-03T23:12:56.919Z,8.60
2018-10-03T23:18:00.962Z,8.17
2018-10-03T23:23:05.001Z,8.43
2018-10-03T23:28:08.801Z,8.07
2018-10-03T23:33:12.617Z,8.30
2018-10-03T23:38:16.424Z,8.73
2018-10-03T23:43:20.317Z,9.08
2018-10-03T23:48:24.365Z,8.70
2018-10-03T23:53:28.421Z,8.17
2018-10-03T23:58:32.503Z,9.20
